sensor_id;sensor_type;location;lat;lon;timestamp;P1;durP1;ratioP1;P2;durP2;ratioP2
18338;SDS011;9295;44.484;11.240;2022-07-22T00:00:26;10.07;;;5.40;;
18338;SDS011;9295;44.484;11.240;2022-07-22T00:02:55;9.23;;;5.33;;
18338;SDS011;9295;44.484;11.240;2022-07-22T00:05:23;7.97;;;5.30;;
18338;SDS011;9295;44.484;11.240;2022-07-22T00:07:52;6.10;;;4.73;;
18338;SDS011;9295;44.484;11.240;2022-07-22T00:10:20;10.17;;;5.20;;
18338;SDS011;9295;44.484;11.240;2022-07-22T00:12:50;9.20;;;5.50;;
18338;SDS011;9295;44.484;11.240;2022-07-22T00:15:19;16.63;;;6.27;;
18338;SDS011;9295;44.484;11.240;2022-07-22T00:17:47;7.40;;;5.40;;
18338;SDS011;9295;44.484;11.240;2022-07-22T00:20:17;10.47;;;5.37;;
18338;SDS011;9295;44.484;11.240;2022-07-22T00:22:46;10.50;;;5.20;;
18338;SDS011;9295;44.484;11.240;2022-07-22T00:25:17;7.23;;;4.83;;
18338;SDS011;9295;44.484;11.240;2022-07-22T00:27:46;9.63;;;5.00;;
18338;SDS011;9295;44.484;11.240;2022-07-22T00:30:17;8.20;;;5.07;;
18338;SDS011;9295;44.484;11.240;2022-07-22T00:32:45;8.67;;;4.67;;
18338;SDS011;9295;44.484;11.240;2022-07-22T00:35:14;15.20;;;5.33;;
18338;SDS011;9295;44.484;11.240;2022-07-22T00:37:42;20.83;;;5.80;;
18338;SDS011;9295;44.484;11.240;2022-07-22T00:40:12;8.10;;;5.93;;
18338;SDS011;9295;44.484;11.240;2022-07-22T00:42:41;9.90;;;5.80;;
18338;SDS011;9295;44.484;11.240;2022-07-22T00:45:10;7.87;;;5.33;;
18338;SDS011;9295;44.484;11.240;2022-07-22T00:47:40;10.40;;;5.63;;
18338;SDS011;9295;44.484;11.240;2022-07-22T00:50:09;9.30;;;5.83;;
18338;SDS011;9295;44.484;11.240;2022-07-22T00:52:38;8.87;;;5.50;;
18338;SDS011;9295;44.484;11.240;2022-07-22T00:55:07;8.00;;;5.70;;
18338;SDS011;9295;44.484;11.240;2022-07-22T00:57:36;9.60;;;5.40;;
18338;SDS011;9295;44.484;11.240;2022-07-22T01:00:07;12.87;;;5.27;;
18338;SDS011;9295;44.484;11.240;2022-07-22T01:02:40;9.70;;;5.17;;
18338;SDS011;9295;44.484;11.240;2022-07-22T01:05:09;7.33;;;5.30;;
18338;SDS011;9295;44.484;11.240;2022-07-22T01:07:38;11.70;;;5.93;;
18338;SDS011;9295;44.484;11.240;2022-07-22T01:10:10;11.13;;;6.00;;
18338;SDS011;9295;44.484;11.240;2022-07-22T01:12:39;8.80;;;5.67;;
18338;SDS011;9295;44.484;11.240;2022-07-22T01:15:09;7.60;;;5.00;;
18338;SDS011;9295;44.484;11.240;2022-07-22T01:17:38;8.57;;;5.87;;
18338;SDS011;9295;44.484;11.240;2022-07-22T01:20:08;13.50;;;9.20;;
18338;SDS011;9295;44.484;11.240;2022-07-22T01:22:39;11.00;;;6.37;;
18338;SDS011;9295;44.484;11.240;2022-07-22T01:25:08;10.47;;;6.30;;
18338;SDS011;9295;44.484;11.240;2022-07-22T01:27:36;15.10;;;7.87;;
18338;SDS011;9295;44.484;11.240;2022-07-22T01:30:08;10.03;;;7.70;;
18338;SDS011;9295;44.484;11.240;2022-07-22T01:32:38;11.43;;;6.17;;
18338;SDS011;9295;44.484;11.240;2022-07-22T01:35:06;8.80;;;5.97;;
18338;SDS011;9295;44.484;11.240;2022-07-22T01:37:37;9.03;;;5.60;;
18338;SDS011;9295;44.484;11.240;2022-07-22T01:40:06;10.53;;;6.00;;
18338;SDS011;9295;44.484;11.240;2022-07-22T01:42:35;11.60;;;5.97;;
18338;SDS011;9295;44.484;11.240;2022-07-22T01:45:04;11.33;;;6.37;;
18338;SDS011;9295;44.484;11.240;2022-07-22T01:47:33;9.20;;;5.73;;
18338;SDS011;9295;44.484;11.240;2022-07-22T01:50:02;11.30;;;6.33;;
18338;SDS011;9295;44.484;11.240;2022-07-22T01:52:36;9.10;;;6.37;;
18338;SDS011;9295;44.484;11.240;2022-07-22T01:55:06;10.37;;;6.03;;
18338;SDS011;9295;44.484;11.240;2022-07-22T01:57:35;18.63;;;6.00;;
18338;SDS011;9295;44.484;11.240;2022-07-22T02:00:15;10.63;;;6.27;;
18338;SDS011;9295;44.484;11.240;2022-07-22T02:02:45;15.40;;;5.60;;
18338;SDS011;9295;44.484;11.240;2022-07-22T02:05:15;9.67;;;5.83;;
18338;SDS011;9295;44.484;11.240;2022-07-22T02:07:46;10.90;;;5.90;;
18338;SDS011;9295;44.484;11.240;2022-07-22T02:10:17;14.57;;;6.07;;
18338;SDS011;9295;44.484;11.240;2022-07-22T02:12:46;17.17;;;6.67;;
18338;SDS011;9295;44.484;11.240;2022-07-22T02:15:15;10.83;;;7.70;;
18338;SDS011;9295;44.484;11.240;2022-07-22T02:17:45;14.17;;;7.43;;
18338;SDS011;9295;44.484;11.240;2022-07-22T02:20:15;11.63;;;5.80;;
18338;SDS011;9295;44.484;11.240;2022-07-22T02:22:43;12.43;;;6.57;;
18338;SDS011;9295;44.484;11.240;2022-07-22T02:25:13;15.50;;;6.20;;
18338;SDS011;9295;44.484;11.240;2022-07-22T02:27:42;10.40;;;6.93;;
18338;SDS011;9295;44.484;11.240;2022-07-22T02:30:11;11.87;;;6.90;;
18338;SDS011;9295;44.484;11.240;2022-07-22T02:32:40;10.60;;;6.63;;
18338;SDS011;9295;44.484;11.240;2022-07-22T02:35:09;10.73;;;6.57;;
18338;SDS011;9295;44.484;11.240;2022-07-22T02:37:38;10.70;;;6.97;;
18338;SDS011;9295;44.484;11.240;2022-07-22T02:40:09;9.57;;;6.63;;
18338;SDS011;9295;44.484;11.240;2022-07-22T02:42:39;13.53;;;6.17;;
18338;SDS011;9295;44.484;11.240;2022-07-22T02:45:08;10.27;;;6.40;;
18338;SDS011;9295;44.484;11.240;2022-07-22T02:47:44;11.67;;;6.37;;
18338;SDS011;9295;44.484;11.240;2022-07-22T02:50:14;9.80;;;6.30;;
18338;SDS011;9295;44.484;11.240;2022-07-22T02:52:42;10.50;;;6.77;;
18338;SDS011;9295;44.484;11.240;2022-07-22T02:55:14;9.37;;;6.50;;
18338;SDS011;9295;44.484;11.240;2022-07-22T02:57:43;12.47;;;7.30;;
18338;SDS011;9295;44.484;11.240;2022-07-22T03:00:13;9.30;;;6.93;;
18338;SDS011;9295;44.484;11.240;2022-07-22T03:02:44;10.30;;;6.60;;
18338;SDS011;9295;44.484;11.240;2022-07-22T03:05:13;13.17;;;7.20;;
18338;SDS011;9295;44.484;11.240;2022-07-22T03:07:49;17.93;;;6.10;;
18338;SDS011;9295;44.484;11.240;2022-07-22T03:10:19;8.67;;;7.00;;
18338;SDS011;9295;44.484;11.240;2022-07-22T03:12:48;12.40;;;6.70;;
18338;SDS011;9295;44.484;11.240;2022-07-22T03:15:17;10.97;;;6.83;;
18338;SDS011;9295;44.484;11.240;2022-07-22T03:17:49;14.80;;;6.47;;
18338;SDS011;9295;44.484;11.240;2022-07-22T03:20:19;15.20;;;6.73;;
18338;SDS011;9295;44.484;11.240;2022-07-22T03:22:48;13.93;;;6.87;;
18338;SDS011;9295;44.484;11.240;2022-07-22T03:25:17;10.87;;;7.00;;
18338;SDS011;9295;44.484;11.240;2022-07-22T03:27:47;12.90;;;6.40;;
18338;SDS011;9295;44.484;11.240;2022-07-22T03:30:15;11.30;;;6.43;;
18338;SDS011;9295;44.484;11.240;2022-07-22T03:32:44;11.33;;;7.17;;
18338;SDS011;9295;44.484;11.240;2022-07-22T03:35:18;12.53;;;6.37;;
18338;SDS011;9295;44.484;11.240;2022-07-22T03:37:48;8.93;;;7.07;;
18338;SDS011;9295;44.484;11.240;2022-07-22T03:40:19;8.20;;;6.20;;
18338;SDS011;9295;44.484;11.240;2022-07-22T03:42:51;10.03;;;6.23;;
18338;SDS011;9295;44.484;11.240;2022-07-22T03:45:22;10.73;;;7.30;;
18338;SDS011;9295;44.484;11.240;2022-07-22T03:47:52;9.70;;;6.83;;
18338;SDS011;9295;44.484;11.240;2022-07-22T03:50:24;11.47;;;6.97;;
18338;SDS011;9295;44.484;11.240;2022-07-22T03:52:54;8.90;;;6.73;;
18338;SDS011;9295;44.484;11.240;2022-07-22T03:55:26;12.67;;;7.50;;
18338;SDS011;9295;44.484;11.240;2022-07-22T03:57:58;13.23;;;7.13;;
18338;SDS011;9295;44.484;11.240;2022-07-22T04:00:29;12.00;;;7.20;;
18338;SDS011;9295;44.484;11.240;2022-07-22T04:03:02;11.30;;;7.70;;
18338;SDS011;9295;44.484;11.240;2022-07-22T04:05:56;11.83;;;6.90;;
18338;SDS011;9295;44.484;11.240;2022-07-22T04:08:33;9.63;;;6.80;;
18338;SDS011;9295;44.484;11.240;2022-07-22T04:11:04;9.83;;;6.90;;
18338;SDS011;9295;44.484;11.240;2022-07-22T04:13:33;8.20;;;6.50;;
18338;SDS011;9295;44.484;11.240;2022-07-22T04:16:02;15.90;;;6.60;;
18338;SDS011;9295;44.484;11.240;2022-07-22T04:18:32;11.03;;;7.43;;
18338;SDS011;9295;44.484;11.240;2022-07-22T04:21:01;10.90;;;7.07;;
18338;SDS011;9295;44.484;11.240;2022-07-22T04:23:53;10.17;;;7.50;;
18338;SDS011;9295;44.484;11.240;2022-07-22T04:26:30;10.93;;;7.13;;
18338;SDS011;9295;44.484;11.240;2022-07-22T04:28:59;10.83;;;6.67;;
18338;SDS011;9295;44.484;11.240;2022-07-22T04:31:28;8.83;;;7.00;;
18338;SDS011;9295;44.484;11.240;2022-07-22T04:34:06;9.53;;;7.37;;
18338;SDS011;9295;44.484;11.240;2022-07-22T04:36:35;12.43;;;6.80;;
18338;SDS011;9295;44.484;11.240;2022-07-22T04:39:03;12.30;;;6.90;;
18338;SDS011;9295;44.484;11.240;2022-07-22T04:41:35;13.50;;;8.30;;
18338;SDS011;9295;44.484;11.240;2022-07-22T04:44:04;9.27;;;5.97;;
18338;SDS011;9295;44.484;11.240;2022-07-22T04:46:33;13.10;;;7.03;;
18338;SDS011;9295;44.484;11.240;2022-07-22T04:49:03;9.97;;;7.07;;
18338;SDS011;9295;44.484;11.240;2022-07-22T04:51:34;21.67;;;7.37;;
18338;SDS011;9295;44.484;11.240;2022-07-22T04:54:05;14.37;;;7.37;;
18338;SDS011;9295;44.484;11.240;2022-07-22T04:56:43;13.43;;;7.10;;
18338;SDS011;9295;44.484;11.240;2022-07-22T04:59:11;11.43;;;7.07;;
18338;SDS011;9295;44.484;11.240;2022-07-22T05:01:41;8.93;;;6.47;;
18338;SDS011;9295;44.484;11.240;2022-07-22T05:04:12;16.30;;;7.40;;
18338;SDS011;9295;44.484;11.240;2022-07-22T05:06:43;11.03;;;6.87;;
18338;SDS011;9295;44.484;11.240;2022-07-22T05:09:12;9.63;;;7.03;;
18338;SDS011;9295;44.484;11.240;2022-07-22T05:11:42;15.10;;;7.83;;
18338;SDS011;9295;44.484;11.240;2022-07-22T05:14:11;11.90;;;7.40;;
18338;SDS011;9295;44.484;11.240;2022-07-22T05:16:42;14.40;;;7.40;;
18338;SDS011;9295;44.484;11.240;2022-07-22T05:19:14;16.10;;;8.43;;
18338;SDS011;9295;44.484;11.240;2022-07-22T05:21:45;12.00;;;6.83;;
18338;SDS011;9295;44.484;11.240;2022-07-22T05:24:14;17.03;;;7.30;;
18338;SDS011;9295;44.484;11.240;2022-07-22T05:26:44;13.30;;;7.60;;
18338;SDS011;9295;44.484;11.240;2022-07-22T05:29:13;13.93;;;7.00;;
18338;SDS011;9295;44.484;11.240;2022-07-22T05:31:41;12.40;;;7.27;;
18338;SDS011;9295;44.484;11.240;2022-07-22T05:34:12;8.47;;;7.10;;
18338;SDS011;9295;44.484;11.240;2022-07-22T05:36:44;14.23;;;7.10;;
18338;SDS011;9295;44.484;11.240;2022-07-22T05:39:15;14.63;;;7.00;;
18338;SDS011;9295;44.484;11.240;2022-07-22T05:41:46;14.73;;;6.93;;
18338;SDS011;9295;44.484;11.240;2022-07-22T05:44:21;15.03;;;7.20;;
18338;SDS011;9295;44.484;11.240;2022-07-22T05:46:49;14.43;;;7.33;;
18338;SDS011;9295;44.484;11.240;2022-07-22T05:49:18;13.57;;;7.17;;
18338;SDS011;9295;44.484;11.240;2022-07-22T05:51:53;17.73;;;6.93;;
18338;SDS011;9295;44.484;11.240;2022-07-22T05:54:24;12.53;;;7.03;;
18338;SDS011;9295;44.484;11.240;2022-07-22T05:56:55;16.20;;;7.00;;
18338;SDS011;9295;44.484;11.240;2022-07-22T05:59:24;10.50;;;6.80;;
18338;SDS011;9295;44.484;11.240;2022-07-22T06:02:10;11.63;;;6.97;;
18338;SDS011;9295;44.484;11.240;2022-07-22T06:04:46;17.90;;;6.33;;
18338;SDS011;9295;44.484;11.240;2022-07-22T06:07:17;11.73;;;6.33;;
18338;SDS011;9295;44.484;11.240;2022-07-22T06:09:52;12.33;;;6.70;;
18338;SDS011;9295;44.484;11.240;2022-07-22T06:12:24;10.17;;;7.40;;
18338;SDS011;9295;44.484;11.240;2022-07-22T06:14:53;7.80;;;6.20;;
18338;SDS011;9295;44.484;11.240;2022-07-22T06:17:22;8.03;;;5.90;;
18338;SDS011;9295;44.484;11.240;2022-07-22T06:19:52;11.40;;;6.30;;
18338;SDS011;9295;44.484;11.240;2022-07-22T06:22:21;16.03;;;6.27;;
18338;SDS011;9295;44.484;11.240;2022-07-22T06:24:49;9.40;;;6.37;;
18338;SDS011;9295;44.484;11.240;2022-07-22T06:27:20;13.57;;;6.80;;
18338;SDS011;9295;44.484;11.240;2022-07-22T06:29:52;11.30;;;7.77;;
18338;SDS011;9295;44.484;11.240;2022-07-22T06:32:22;15.03;;;8.80;;
18338;SDS011;9295;44.484;11.240;2022-07-22T06:34:51;16.60;;;9.90;;
18338;SDS011;9295;44.484;11.240;2022-07-22T06:37:19;21.10;;;9.60;;
18338;SDS011;9295;44.484;11.240;2022-07-22T06:40:10;13.97;;;8.67;;
18338;SDS011;9295;44.484;11.240;2022-07-22T06:43:06;17.33;;;8.10;;
18338;SDS011;9295;44.484;11.240;2022-07-22T06:46:08;12.63;;;7.30;;
18338;SDS011;9295;44.484;11.240;2022-07-22T06:48:46;18.87;;;8.67;;
18338;SDS011;9295;44.484;11.240;2022-07-22T06:51:15;13.03;;;7.47;;
18338;SDS011;9295;44.484;11.240;2022-07-22T06:53:44;18.53;;;7.87;;
18338;SDS011;9295;44.484;11.240;2022-07-22T06:56:15;10.00;;;7.30;;
18338;SDS011;9295;44.484;11.240;2022-07-22T06:58:43;20.80;;;6.67;;
18338;SDS011;9295;44.484;11.240;2022-07-22T07:01:13;13.13;;;5.23;;
18338;SDS011;9295;44.484;11.240;2022-07-22T07:03:51;9.13;;;5.57;;
18338;SDS011;9295;44.484;11.240;2022-07-22T07:06:20;13.00;;;5.57;;
18338;SDS011;9295;44.484;11.240;2022-07-22T07:09:18;13.07;;;5.80;;
18338;SDS011;9295;44.484;11.240;2022-07-22T07:12:00;8.60;;;4.53;;
18338;SDS011;9295;44.484;11.240;2022-07-22T07:14:47;13.97;;;5.63;;
18338;SDS011;9295;44.484;11.240;2022-07-22T07:17:38;11.20;;;5.53;;
18338;SDS011;9295;44.484;11.240;2022-07-22T07:20:09;9.63;;;5.87;;
18338;SDS011;9295;44.484;11.240;2022-07-22T07:22:39;10.93;;;5.33;;
18338;SDS011;9295;44.484;11.240;2022-07-22T07:25:07;12.90;;;5.50;;
18338;SDS011;9295;44.484;11.240;2022-07-22T07:27:50;10.83;;;5.33;;
18338;SDS011;9295;44.484;11.240;2022-07-22T07:30:44;7.20;;;5.13;;
18338;SDS011;9295;44.484;11.240;2022-07-22T07:33:15;8.77;;;4.60;;
18338;SDS011;9295;44.484;11.240;2022-07-22T07:35:45;20.33;;;5.33;;
18338;SDS011;9295;44.484;11.240;2022-07-22T07:38:19;19.43;;;5.20;;
18338;SDS011;9295;44.484;11.240;2022-07-22T07:40:48;7.43;;;5.10;;
18338;SDS011;9295;44.484;11.240;2022-07-22T07:43:17;12.67;;;4.83;;
18338;SDS011;9295;44.484;11.240;2022-07-22T07:45:47;8.60;;;4.93;;
18338;SDS011;9295;44.484;11.240;2022-07-22T07:48:17;5.87;;;4.77;;
18338;SDS011;9295;44.484;11.240;2022-07-22T07:50:46;15.83;;;4.87;;
18338;SDS011;9295;44.484;11.240;2022-07-22T07:53:15;9.90;;;4.80;;
18338;SDS011;9295;44.484;11.240;2022-07-22T07:55:46;14.10;;;4.70;;
18338;SDS011;9295;44.484;11.240;2022-07-22T07:58:16;7.60;;;4.77;;
18338;SDS011;9295;44.484;11.240;2022-07-22T08:00:45;10.57;;;4.90;;
18338;SDS011;9295;44.484;11.240;2022-07-22T08:03:14;8.87;;;4.63;;
18338;SDS011;9295;44.484;11.240;2022-07-22T08:05:45;14.07;;;4.40;;
18338;SDS011;9295;44.484;11.240;2022-07-22T08:08:22;11.57;;;4.73;;
18338;SDS011;9295;44.484;11.240;2022-07-22T08:10:53;15.87;;;4.47;;
18338;SDS011;9295;44.484;11.240;2022-07-22T08:13:31;11.70;;;4.80;;
18338;SDS011;9295;44.484;11.240;2022-07-22T08:16:35;11.50;;;4.30;;
18338;SDS011;9295;44.484;11.240;2022-07-22T08:19:04;13.27;;;4.60;;
18338;SDS011;9295;44.484;11.240;2022-07-22T08:21:34;8.70;;;4.80;;
18338;SDS011;9295;44.484;11.240;2022-07-22T08:24:19;12.50;;;5.30;;
18338;SDS011;9295;44.484;11.240;2022-07-22T08:26:50;6.07;;;5.03;;
18338;SDS011;9295;44.484;11.240;2022-07-22T08:29:18;15.20;;;5.10;;
18338;SDS011;9295;44.484;11.240;2022-07-22T08:31:47;9.40;;;5.00;;
18338;SDS011;9295;44.484;11.240;2022-07-22T08:34:18;9.47;;;4.73;;
18338;SDS011;9295;44.484;11.240;2022-07-22T08:36:47;21.70;;;5.00;;
18338;SDS011;9295;44.484;11.240;2022-07-22T08:39:16;9.70;;;4.80;;
18338;SDS011;9295;44.484;11.240;2022-07-22T08:41:49;20.00;;;4.60;;
18338;SDS011;9295;44.484;11.240;2022-07-22T08:44:18;12.60;;;4.70;;
18338;SDS011;9295;44.484;11.240;2022-07-22T08:46:51;8.17;;;4.30;;
18338;SDS011;9295;44.484;11.240;2022-07-22T08:49:59;15.80;;;5.20;;
18338;SDS011;9295;44.484;11.240;2022-07-22T08:52:53;18.47;;;5.07;;
18338;SDS011;9295;44.484;11.240;2022-07-22T08:55:23;11.47;;;4.50;;
18338;SDS011;9295;44.484;11.240;2022-07-22T08:57:55;9.50;;;4.67;;
18338;SDS011;9295;44.484;11.240;2022-07-22T09:00:23;8.73;;;4.53;;
18338;SDS011;9295;44.484;11.240;2022-07-22T09:02:52;8.87;;;4.30;;
18338;SDS011;9295;44.484;11.240;2022-07-22T09:05:21;10.10;;;4.63;;
18338;SDS011;9295;44.484;11.240;2022-07-22T09:08:13;12.77;;;4.83;;
18338;SDS011;9295;44.484;11.240;2022-07-22T09:11:16;9.53;;;4.30;;
18338;SDS011;9295;44.484;11.240;2022-07-22T09:14:04;14.40;;;4.27;;
18338;SDS011;9295;44.484;11.240;2022-07-22T09:16:51;21.97;;;4.43;;
18338;SDS011;9295;44.484;11.240;2022-07-22T09:19:31;9.37;;;4.47;;
18338;SDS011;9295;44.484;11.240;2022-07-22T09:22:36;11.83;;;4.43;;
18338;SDS011;9295;44.484;11.240;2022-07-22T09:25:19;12.00;;;5.00;;
18338;SDS011;9295;44.484;11.240;2022-07-22T09:28:25;8.33;;;4.73;;
18338;SDS011;9295;44.484;11.240;2022-07-22T09:31:22;11.27;;;4.77;;
18338;SDS011;9295;44.484;11.240;2022-07-22T09:34:03;8.03;;;4.50;;
18338;SDS011;9295;44.484;11.240;2022-07-22T09:36:53;12.93;;;5.10;;
18338;SDS011;9295;44.484;11.240;2022-07-22T09:39:25;15.70;;;4.70;;
18338;SDS011;9295;44.484;11.240;2022-07-22T09:41:57;9.53;;;4.60;;
18338;SDS011;9295;44.484;11.240;2022-07-22T09:44:27;10.87;;;5.13;;
18338;SDS011;9295;44.484;11.240;2022-07-22T09:47:00;11.33;;;4.90;;
18338;SDS011;9295;44.484;11.240;2022-07-22T09:49:48;10.97;;;5.10;;
18338;SDS011;9295;44.484;11.240;2022-07-22T09:52:35;11.00;;;4.83;;
18338;SDS011;9295;44.484;11.240;2022-07-22T09:55:11;25.73;;;4.80;;
18338;SDS011;9295;44.484;11.240;2022-07-22T09:57:44;12.73;;;4.57;;
18338;SDS011;9295;44.484;11.240;2022-07-22T10:00:14;11.93;;;5.20;;
18338;SDS011;9295;44.484;11.240;2022-07-22T10:02:52;10.33;;;5.03;;
18338;SDS011;9295;44.484;11.240;2022-07-22T10:05:22;11.47;;;5.10;;
18338;SDS011;9295;44.484;11.240;2022-07-22T10:07:54;7.30;;;4.13;;
18338;SDS011;9295;44.484;11.240;2022-07-22T10:10:24;10.40;;;4.60;;
18338;SDS011;9295;44.484;11.240;2022-07-22T10:12:56;7.83;;;5.00;;
18338;SDS011;9295;44.484;11.240;2022-07-22T10:15:27;10.33;;;4.87;;
18338;SDS011;9295;44.484;11.240;2022-07-22T10:18:03;9.77;;;5.40;;
18338;SDS011;9295;44.484;11.240;2022-07-22T10:20:37;10.20;;;4.20;;
18338;SDS011;9295;44.484;11.240;2022-07-22T10:23:06;15.83;;;5.03;;
18338;SDS011;9295;44.484;11.240;2022-07-22T10:25:50;8.10;;;5.07;;
18338;SDS011;9295;44.484;11.240;2022-07-22T10:28:23;11.37;;;5.37;;
18338;SDS011;9295;44.484;11.240;2022-07-22T10:30:53;13.47;;;5.40;;
18338;SDS011;9295;44.484;11.240;2022-07-22T10:33:43;14.23;;;4.80;;
18338;SDS011;9295;44.484;11.240;2022-07-22T10:36:12;11.00;;;5.13;;
18338;SDS011;9295;44.484;11.240;2022-07-22T10:39:01;10.43;;;5.30;;
18338;SDS011;9295;44.484;11.240;2022-07-22T10:41:33;11.27;;;5.50;;
18338;SDS011;9295;44.484;11.240;2022-07-22T10:44:05;9.17;;;5.60;;
18338;SDS011;9295;44.484;11.240;2022-07-22T10:46:47;11.00;;;5.50;;
18338;SDS011;9295;44.484;11.240;2022-07-22T10:49:17;9.83;;;4.90;;
18338;SDS011;9295;44.484;11.240;2022-07-22T10:57:44;6.97;;;4.90;;
18338;SDS011;9295;44.484;11.240;2022-07-22T11:00:16;10.60;;;4.83;;
18338;SDS011;9295;44.484;11.240;2022-07-22T11:02:45;18.97;;;5.63;;
18338;SDS011;9295;44.484;11.240;2022-07-22T11:05:14;10.23;;;5.63;;
18338;SDS011;9295;44.484;11.240;2022-07-22T11:07:53;14.47;;;6.30;;
18338;SDS011;9295;44.484;11.240;2022-07-22T11:10:22;12.90;;;6.10;;
18338;SDS011;9295;44.484;11.240;2022-07-22T11:12:51;13.50;;;5.40;;
18338;SDS011;9295;44.484;11.240;2022-07-22T11:15:25;14.47;;;5.57;;
18338;SDS011;9295;44.484;11.240;2022-07-22T11:17:55;15.13;;;5.13;;
18338;SDS011;9295;44.484;11.240;2022-07-22T11:20:24;7.47;;;5.10;;
18338;SDS011;9295;44.484;11.240;2022-07-22T11:22:53;10.70;;;5.57;;
18338;SDS011;9295;44.484;11.240;2022-07-22T11:25:24;7.43;;;5.40;;
18338;SDS011;9295;44.484;11.240;2022-07-22T11:27:55;17.20;;;5.87;;
18338;SDS011;9295;44.484;11.240;2022-07-22T11:30:26;9.47;;;5.30;;
18338;SDS011;9295;44.484;11.240;2022-07-22T11:32:54;19.27;;;5.53;;
18338;SDS011;9295;44.484;11.240;2022-07-22T11:35:23;12.00;;;5.03;;
18338;SDS011;9295;44.484;11.240;2022-07-22T11:37:55;15.33;;;5.33;;
18338;SDS011;9295;44.484;11.240;2022-07-22T11:40:24;8.10;;;5.00;;
18338;SDS011;9295;44.484;11.240;2022-07-22T11:43:00;10.73;;;5.40;;
18338;SDS011;9295;44.484;11.240;2022-07-22T11:45:31;12.00;;;6.00;;
18338;SDS011;9295;44.484;11.240;2022-07-22T11:48:07;8.23;;;5.10;;
18338;SDS011;9295;44.484;11.240;2022-07-22T11:50:37;9.27;;;5.10;;
18338;SDS011;9295;44.484;11.240;2022-07-22T11:53:05;9.07;;;5.33;;
18338;SDS011;9295;44.484;11.240;2022-07-22T11:55:34;12.00;;;5.10;;
18338;SDS011;9295;44.484;11.240;2022-07-22T11:58:04;13.07;;;5.37;;
18338;SDS011;9295;44.484;11.240;2022-07-22T12:00:34;17.97;;;6.07;;
18338;SDS011;9295;44.484;11.240;2022-07-22T12:03:06;6.90;;;5.00;;
18338;SDS011;9295;44.484;11.240;2022-07-22T12:05:35;8.30;;;5.60;;
18338;SDS011;9295;44.484;11.240;2022-07-22T12:08:04;13.73;;;5.40;;
18338;SDS011;9295;44.484;11.240;2022-07-22T12:10:32;17.90;;;5.50;;
18338;SDS011;9295;44.484;11.240;2022-07-22T12:13:01;12.97;;;5.70;;
18338;SDS011;9295;44.484;11.240;2022-07-22T12:15:30;16.93;;;5.07;;
18338;SDS011;9295;44.484;11.240;2022-07-22T12:18:16;11.30;;;5.60;;
18338;SDS011;9295;44.484;11.240;2022-07-22T12:20:47;17.80;;;5.70;;
18338;SDS011;9295;44.484;11.240;2022-07-22T12:23:20;11.50;;;5.60;;
18338;SDS011;9295;44.484;11.240;2022-07-22T12:25:54;12.13;;;5.40;;
18338;SDS011;9295;44.484;11.240;2022-07-22T12:28:26;8.30;;;4.73;;
18338;SDS011;9295;44.484;11.240;2022-07-22T12:30:55;6.90;;;4.60;;
18338;SDS011;9295;44.484;11.240;2022-07-22T12:33:25;5.80;;;4.43;;
18338;SDS011;9295;44.484;11.240;2022-07-22T12:35:58;8.30;;;4.83;;
18338;SDS011;9295;44.484;11.240;2022-07-22T12:38:28;6.50;;;4.50;;
18338;SDS011;9295;44.484;11.240;2022-07-22T12:43:49;6.63;;;4.40;;
18338;SDS011;9295;44.484;11.240;2022-07-22T12:46:19;10.00;;;4.77;;
18338;SDS011;9295;44.484;11.240;2022-07-22T12:48:49;6.73;;;4.20;;
18338;SDS011;9295;44.484;11.240;2022-07-22T12:51:20;11.93;;;4.70;;
18338;SDS011;9295;44.484;11.240;2022-07-22T12:53:50;7.33;;;4.60;;
18338;SDS011;9295;44.484;11.240;2022-07-22T12:56:19;7.10;;;4.40;;
18338;SDS011;9295;44.484;11.240;2022-07-22T12:58:51;27.40;;;4.97;;
18338;SDS011;9295;44.484;11.240;2022-07-22T13:01:20;10.73;;;4.50;;
18338;SDS011;9295;44.484;11.240;2022-07-22T13:03:52;8.33;;;4.40;;
18338;SDS011;9295;44.484;11.240;2022-07-22T13:06:21;6.67;;;4.50;;
18338;SDS011;9295;44.484;11.240;2022-07-22T13:08:50;9.70;;;5.30;;
18338;SDS011;9295;44.484;11.240;2022-07-22T13:11:19;7.37;;;4.53;;
18338;SDS011;9295;44.484;11.240;2022-07-22T13:13:48;12.23;;;4.40;;
18338;SDS011;9295;44.484;11.240;2022-07-22T13:16:16;6.10;;;4.23;;
18338;SDS011;9295;44.484;11.240;2022-07-22T13:18:49;12.30;;;4.37;;
18338;SDS011;9295;44.484;11.240;2022-07-22T13:21:19;11.00;;;4.10;;
18338;SDS011;9295;44.484;11.240;2022-07-22T13:23:48;11.00;;;4.37;;
18338;SDS011;9295;44.484;11.240;2022-07-22T13:26:16;9.27;;;4.60;;
18338;SDS011;9295;44.484;11.240;2022-07-22T13:28:45;6.73;;;4.47;;
18338;SDS011;9295;44.484;11.240;2022-07-22T13:31:13;9.17;;;4.60;;
18338;SDS011;9295;44.484;11.240;2022-07-22T13:33:43;12.10;;;5.00;;
18338;SDS011;9295;44.484;11.240;2022-07-22T13:36:11;15.30;;;4.80;;
18338;SDS011;9295;44.484;11.240;2022-07-22T13:38:41;8.60;;;4.03;;
18338;SDS011;9295;44.484;11.240;2022-07-22T13:41:10;9.70;;;4.03;;
18338;SDS011;9295;44.484;11.240;2022-07-22T13:43:45;6.93;;;4.30;;
18338;SDS011;9295;44.484;11.240;2022-07-22T13:46:15;8.97;;;4.53;;
18338;SDS011;9295;44.484;11.240;2022-07-22T13:48:44;9.90;;;4.00;;
18338;SDS011;9295;44.484;11.240;2022-07-22T13:51:13;5.50;;;4.60;;
18338;SDS011;9295;44.484;11.240;2022-07-22T13:53:43;11.40;;;4.60;;
18338;SDS011;9295;44.484;11.240;2022-07-22T13:56:12;9.10;;;4.00;;
18338;SDS011;9295;44.484;11.240;2022-07-22T13:58:43;7.90;;;4.27;;
18338;SDS011;9295;44.484;11.240;2022-07-22T14:01:13;7.93;;;4.20;;
18338;SDS011;9295;44.484;11.240;2022-07-22T14:03:42;12.63;;;4.60;;
18338;SDS011;9295;44.484;11.240;2022-07-22T14:06:10;9.10;;;3.80;;
18338;SDS011;9295;44.484;11.240;2022-07-22T14:08:39;5.33;;;4.00;;
18338;SDS011;9295;44.484;11.240;2022-07-22T14:11:09;11.90;;;4.53;;
18338;SDS011;9295;44.484;11.240;2022-07-22T14:13:37;9.27;;;4.20;;
18338;SDS011;9295;44.484;11.240;2022-07-22T14:16:06;7.70;;;4.20;;
18338;SDS011;9295;44.484;11.240;2022-07-22T14:19:13;12.60;;;4.67;;
18338;SDS011;9295;44.484;11.240;2022-07-22T14:21:44;11.43;;;4.77;;
18338;SDS011;9295;44.484;11.240;2022-07-22T14:24:13;13.37;;;4.40;;
18338;SDS011;9295;44.484;11.240;2022-07-22T14:26:43;9.07;;;4.23;;
18338;SDS011;9295;44.484;11.240;2022-07-22T14:29:12;10.13;;;4.90;;
18338;SDS011;9295;44.484;11.240;2022-07-22T14:31:41;8.37;;;4.27;;
18338;SDS011;9295;44.484;11.240;2022-07-22T14:34:09;7.00;;;4.27;;
18338;SDS011;9295;44.484;11.240;2022-07-22T14:36:38;8.70;;;4.30;;
18338;SDS011;9295;44.484;11.240;2022-07-22T14:39:07;10.20;;;4.00;;
18338;SDS011;9295;44.484;11.240;2022-07-22T14:41:36;9.33;;;4.40;;
18338;SDS011;9295;44.484;11.240;2022-07-22T14:44:06;10.27;;;4.83;;
18338;SDS011;9295;44.484;11.240;2022-07-22T14:46:34;12.30;;;4.83;;
18338;SDS011;9295;44.484;11.240;2022-07-22T14:49:03;9.13;;;4.47;;
18338;SDS011;9295;44.484;11.240;2022-07-22T14:51:40;7.43;;;4.23;;
18338;SDS011;9295;44.484;11.240;2022-07-22T14:54:09;13.90;;;4.20;;
18338;SDS011;9295;44.484;11.240;2022-07-22T14:56:38;11.07;;;4.20;;
18338;SDS011;9295;44.484;11.240;2022-07-22T14:59:08;9.93;;;4.73;;
18338;SDS011;9295;44.484;11.240;2022-07-22T15:01:37;12.63;;;4.60;;
18338;SDS011;9295;44.484;11.240;2022-07-22T15:04:06;4.87;;;4.03;;
18338;SDS011;9295;44.484;11.240;2022-07-22T15:06:35;9.13;;;4.37;;
18338;SDS011;9295;44.484;11.240;2022-07-22T15:09:06;15.43;;;4.47;;
18338;SDS011;9295;44.484;11.240;2022-07-22T15:11:35;10.13;;;4.87;;
18338;SDS011;9295;44.484;11.240;2022-07-22T15:14:03;9.27;;;4.53;;
18338;SDS011;9295;44.484;11.240;2022-07-22T15:16:34;6.50;;;4.27;;